Carver, MN (55315)

8:05 PM CST on February 23, 2017 (GMT -0600)
Carver Bluffs, Carver Minnesota | | Change Station
Active Advisory: Winter Weather Advisory

Elev 837 ft 44.75 °N, 93.65 °W | Updated 42 seconds ago

Overcast
Overcast
29.8 °F
Feels Like 24 °F
N
6.0
Wind Variable Wind from NE

Today
High -- | Low -- °F
--% Chance of Precip.
Yesterday
High -- | Low -- °F
Precip. -- in
Pressure 29.90 in
Visibility 10.0 miles
Clouds Overcast 10000 ft
Windchill 24 °F
Dew Point 24 °F
Humidity 80%
Rainfall 0.00 in
Snow Depth Not available.
7:01 AM 5:54 PM
Waning Crescent, 7% visible
METAR KFCM 240153Z 03015G20KT 10SM OVC100 M01/M06 A2986 RMK AO2 SLP123 T10111056
Pressure 29.90 in
Visibility 10.0 miles
Clouds Overcast 10000 ft
Windchill 24 °F
Dew Point 24 °F
Humidity 80%
Rainfall 0.00 in
Snow Depth Not available.
7:01 AM 5:54 PM
Waning Crescent, 7% visible
METAR KFCM 240153Z 03015G20KT 10SM OVC100 M01/M06 A2986 RMK AO2 SLP123 T10111056

Get Your Daily Forecast Email!

Thanks for signing up!

Be on the lookout for a verification email in your inbox.

You'll start receiving the daily forecast at 8 AM.

×

10-Day Weather Forecast

Almanac

Astronomy

Feb. 23, 2017 Rise Set
Actual Time
Civil Twilight
Nautical Twilight
Astronomical Twilight
Moon
Length of Visible Light
Length of Day
Tomorrow will be .
, % of the Moon is Illuminated

Today's Extremes

State Highs State Lows

Community

WunderPhotos

Upload Photos

1,962,540 photos uploaded!

WunderBlog® & News

Nearby

Air Quality

  Air Quality AQ Index Pollutant
Not available.

Snow Depth

Station Depth Elevation

Earthquake Activity

City Distance Mag. Time & Date
Minimum magnitude displayed is 2.5.

Coastal Water Temperatures

Place Temperature

Stations

Nearby Weather Stations

Station Location Temp. Windchill Dew Point Humidity Wind Precip. Elev Updated Type
                   

Watches & Warnings

Winter Weather Advisory
Issued: 4:28 PM CST Feb. 23, 2017 – National Weather Service

... Winter Weather Advisory remains in effect from 9 PM this
evening to 6 am CST Saturday...

* timing... snow will spread into the area between 10pm and 2am
tonight.

* Snow accumulations... 2 to 5 inches are possible.

* Winds... northeast to northwest 15 to 25 mph with gusts to 35
mph may result in areas of blowing and drifting snow.

Precautionary/preparedness actions...

A Winter Weather Advisory for snow and blowing snow means that
visibilities will be limited due to a combination of falling and
blowing snow. Use caution when traveling... especially in open
areas.



Borghoff